Time;durP1;ratioP1;P1;durP2;ratioP2;P2;SDS_P1;SDS_P2;PMS_P1;PMS_P2;Temp;Humidity;BMP_temperature;BMP_pressure;BME280_temperature;BME280_humidity;BME280_pressure;Samples;Min_cycle;Max_cycle;Signal;HPM_P1;HPM_P2
2023/10/26 00:01:12;;;;;;;1.52;1.25;;;18.40;69.50;;;;;;5042774;28;20106;-55
2023/10/26 00:03:38;;;;;;;1.20;0.90;;;18.50;69.50;;;;;;5041576;28;20466;-56
2023/10/26 00:06:04;;;;;;;1.40;1.05;;;18.50;69.60;;;;;;5043105;28;20032;-54
2023/10/26 00:08:29;;;;;;;1.48;0.77;;;18.40;69.50;;;;;;5044282;28;20029;-56
2023/10/26 00:10:55;;;;;;;1.33;0.70;;;18.40;69.50;;;;;;5022912;28;20030;-53
2023/10/26 00:13:21;;;;;;;1.17;0.80;;;18.40;69.50;;;;;;5043437;28;20028;-57
2023/10/26 00:15:47;;;;;;;1.20;0.90;;;18.40;69.40;;;;;;5042674;28;20059;-55
2023/10/26 00:18:13;;;;;;;0.80;0.80;;;18.40;69.50;;;;;;5040149;28;20116;-58
2023/10/26 00:20:39;;;;;;;1.25;0.90;;;18.40;69.50;;;;;;5032372;28;20112;-54
2023/10/26 00:23:06;;;;;;;1.35;1.10;;;18.40;69.50;;;;;;5038181;28;20104;-55
2023/10/26 00:25:31;;;;;;;1.08;0.75;;;18.40;69.50;;;;;;5038973;28;20064;-53
2023/10/26 00:27:58;;;;;;;1.60;0.82;;;18.40;69.50;;;;;;5038722;28;20529;-53
2023/10/26 00:30:24;;;;;;;0.80;0.70;;;18.40;69.50;;;;;;5038536;28;20555;-54
2023/10/26 00:32:50;;;;;;;0.82;0.75;;;18.40;69.50;;;;;;5042096;28;20056;-50
2023/10/26 00:35:16;;;;;;;1.38;0.85;;;18.40;69.50;;;;;;5039248;28;20025;-57
2023/10/26 00:37:41;;;;;;;1.42;0.75;;;18.40;69.50;;;;;;5044557;28;20494;-57
2023/10/26 00:40:07;;;;;;;0.68;0.50;;;18.40;69.50;;;;;;5042659;28;20094;-53
2023/10/26 00:42:33;;;;;;;1.15;0.70;;;18.40;69.50;;;;;;5043507;28;20028;-56
2023/10/26 00:44:58;;;;;;;1.30;0.70;;;18.40;69.50;;;;;;5039041;28;20025;-56
2023/10/26 00:47:25;;;;;;;0.77;0.75;;;18.40;69.50;;;;;;5037372;28;20868;-56
2023/10/26 00:49:51;;;;;;;1.15;0.88;;;18.50;69.60;;;;;;5036460;28;20033;-57
2023/10/26 00:52:17;;;;;;;0.82;0.70;;;18.40;69.50;;;;;;5034402;28;20037;-55
2023/10/26 00:54:43;;;;;;;0.98;0.65;;;18.40;69.50;;;;;;5035612;28;20029;-56
2023/10/26 00:57:10;;;;;;;0.75;0.50;;;18.40;69.50;;;;;;5033929;28;20516;-57
2023/10/26 00:59:36;;;;;;;0.70;0.60;;;18.40;69.50;;;;;;5039869;28;20048;-55
2023/10/26 01:02:02;;;;;;;0.68;0.50;;;18.40;69.50;;;;;;5040822;28;20124;-53
2023/10/26 01:04:28;;;;;;;0.95;0.60;;;18.40;69.50;;;;;;5040962;28;20036;-54
2023/10/26 01:06:54;;;;;;;0.73;0.47;;;18.40;69.50;;;;;;5041011;28;20025;-57
2023/10/26 01:09:21;;;;;;;1.90;0.50;;;18.40;69.50;;;;;;5040622;28;20025;-54
2023/10/26 01:11:47;;;;;;;0.65;0.57;;;18.40;69.50;;;;;;5040553;28;20059;-54
2023/10/26 01:14:13;;;;;;;1.95;0.60;;;18.50;69.60;;;;;;5038662;28;20029;-55
2023/10/26 01:16:39;;;;;;;0.63;0.50;;;18.40;69.50;;;;;;5037964;28;20036;-56
2023/10/26 01:19:06;;;;;;;0.70;0.57;;;18.50;69.60;;;;;;5039942;28;20063;-56
2023/10/26 01:21:50;;;;;;;1.83;0.70;;;18.40;69.50;;;;;;5034552;28;20037;-55
2023/10/26 01:24:16;;;;;;;1.00;0.47;;;18.40;69.50;;;;;;5034473;28;20036;-54
2023/10/26 01:26:41;;;;;;;1.05;0.82;;;18.40;69.50;;;;;;5037597;28;20043;-54
2023/10/26 01:29:07;;;;;;;0.52;0.50;;;18.40;69.50;;;;;;5041108;28;20083;-54
2023/10/26 01:31:32;;;;;;;0.55;0.50;;;18.40;69.50;;;;;;5039046;28;20087;-59
2023/10/26 01:33:58;;;;;;;0.82;0.75;;;18.40;69.50;;;;;;5040706;28;20070;-50
2023/10/26 01:36:24;;;;;;;1.02;0.73;;;18.40;69.50;;;;;;5040968;28;20107;-56
2023/10/26 01:38:49;;;;;;;0.57;0.52;;;18.40;69.60;;;;;;5041115;28;20509;-53
2023/10/26 01:41:15;;;;;;;0.90;0.50;;;18.40;69.60;;;;;;5040898;28;20029;-53
2023/10/26 01:43:40;;;;;;;0.68;0.40;;;18.40;69.60;;;;;;5041463;28;20030;-56
2023/10/26 01:46:06;;;;;;;0.30;0.30;;;18.40;69.50;;;;;;5033698;28;20431;-54
2023/10/26 01:48:31;;;;;;;0.90;0.40;;;18.40;69.50;;;;;;5033423;28;20128;-53
2023/10/26 01:50:57;;;;;;;0.60;0.40;;;18.40;69.60;;;;;;5028161;28;20055;-55
2023/10/26 01:53:23;;;;;;;0.43;0.40;;;18.40;69.60;;;;;;5035406;28;20037;-56
2023/10/26 01:55:49;;;;;;;0.95;0.50;;;18.40;69.50;;;;;;5038177;28;20032;-55
2023/10/26 01:58:15;;;;;;;0.50;0.40;;;18.40;69.50;;;;;;5038957;28;20030;-55
2023/10/26 02:00:41;;;;;;;0.50;0.50;;;18.40;69.50;;;;;;5016637;28;20044;-62
2023/10/26 02:03:07;;;;;;;0.40;0.40;;;18.40;69.50;;;;;;5036195;28;20095;-52
2023/10/26 02:05:33;;;;;;;0.65;0.65;;;18.40;69.50;;;;;;5045982;28;20044;-55
2023/10/26 02:07:59;;;;;;;0.70;0.50;;;18.50;69.60;;;;;;5045993;28;20389;-53
2023/10/26 02:10:29;;;;;;;0.47;0.20;;;18.50;69.60;;;;;;5043379;28;20026;-54
2023/10/26 02:12:57;;;;;;;0.52;0.40;;;18.40;69.60;;;;;;5042184;28;20474;-58
2023/10/26 02:15:23;;;;;;;0.63;0.20;;;18.40;69.50;;;;;;5039336;28;20045;-54
2023/10/26 02:17:48;;;;;;;0.20;0.20;;;18.50;69.60;;;;;;5039668;28;20029;-55
2023/10/26 02:20:14;;;;;;;0.57;0.35;;;18.40;69.50;;;;;;5039270;28;20039;-56
2023/10/26 02:22:40;;;;;;;1.33;0.50;;;18.40;69.60;;;;;;5036560;28;20036;-52
2023/10/26 02:25:05;;;;;;;0.50;0.40;;;18.40;69.60;;;;;;5044431;28;20710;-55
2023/10/26 02:27:32;;;;;;;0.50;0.38;;;18.40;69.50;;;;;;5045962;28;20400;-56
2023/10/26 02:29:58;;;;;;;0.47;0.30;;;18.40;69.60;;;;;;5044338;28;20037;-53
2023/10/26 02:32:24;;;;;;;0.30;0.30;;;18.40;69.50;;;;;;5042172;28;20059;-52
2023/10/26 02:34:49;;;;;;;0.75;0.40;;;18.50;69.60;;;;;;5046039;28;20112;-54
2023/10/26 02:37:17;;;;;;;0.35;0.20;;;18.40;69.50;;;;;;5046832;28;20394;-57
2023/10/26 02:39:43;;;;;;;0.20;0.20;;;18.40;69.50;;;;;;5042180;28;20033;-55
2023/10/26 02:42:09;;;;;;;0.40;0.30;;;18.40;69.50;;;;;;5040893;28;20071;-56
2023/10/26 02:44:35;;;;;;;0.40;0.40;;;18.40;69.50;;;;;;5039129;28;20066;-59
2023/10/26 02:47:00;;;;;;;0.70;0.40;;;18.40;69.50;;;;;;5042243;28;20031;-58
2023/10/26 02:49:26;;;;;;;0.55;0.30;;;18.40;69.50;;;;;;5041673;28;20033;-52
2023/10/26 02:51:51;;;;;;;0.45;0.30;;;18.40;69.50;;;;;;5017849;28;20056;-56
2023/10/26 02:54:17;;;;;;;1.05;0.30;;;18.40;69.50;;;;;;5040152;28;20037;-57
2023/10/26 02:56:42;;;;;;;0.25;0.25;;;18.40;69.50;;;;;;5045759;28;20451;-55
2023/10/26 02:59:08;;;;;;;0.30;0.30;;;18.40;69.50;;;;;;5044501;28;20041;-55
2023/10/26 03:01:34;;;;;;;0.52;0.30;;;18.40;69.60;;;;;;5042607;28;20120;-55
2023/10/26 03:04:03;;;;;;;0.25;0.25;;;18.40;69.50;;;;;;5045455;28;20391;-55
2023/10/26 03:06:35;;;;;;;0.20;0.20;;;18.40;69.60;;;;;;5044461;28;20029;-57
2023/10/26 03:09:00;;;;;;;0.30;0.30;;;18.40;69.60;;;;;;5044786;28;20033;-56
2023/10/26 03:11:26;;;;;;;0.30;0.30;;;18.40;69.60;;;;;;5042863;28;20090;-55
2023/10/26 03:13:51;;;;;;;0.65;0.40;;;18.40;69.60;;;;;;5043130;28;20173;-57
2023/10/26 03:16:17;;;;;;;0.20;0.20;;;18.40;69.50;;;;;;5036962;28;20612;-55
2023/10/26 03:18:43;;;;;;;0.30;0.30;;;18.40;69.50;;;;;;5042133;28;20116;-55
2023/10/26 03:21:08;;;;;;;0.68;0.20;;;18.40;69.60;;;;;;5042850;28;20033;-55
2023/10/26 03:23:34;;;;;;;0.25;0.22;;;18.40;69.60;;;;;;5029192;28;20029;-59
2023/10/26 03:26:00;;;;;;;0.28;0.20;;;18.40;69.60;;;;;;5045216;28;20048;-52
2023/10/26 03:28:25;;;;;;;0.20;0.20;;;18.40;69.80;;;;;;5042653;28;20033;-52
2023/10/26 03:30:51;;;;;;;1.10;0.22;;;18.40;69.60;;;;;;5041966;28;20099;-52
2023/10/26 03:33:16;;;;;;;0.28;0.20;;;18.40;69.50;;;;;;5038520;28;20503;-55
2023/10/26 03:35:42;;;;;;;0.20;0.20;;;18.40;69.60;;;;;;5042376;28;20029;-57
2023/10/26 03:38:08;;;;;;;0.50;0.50;;;18.40;69.50;;;;;;5043507;28;20086;-55
2023/10/26 03:40:34;;;;;;;0.43;0.28;;;18.40;69.50;;;;;;5042681;28;20112;-55
2023/10/26 03:42:59;;;;;;;0.20;0.20;;;18.40;69.60;;;;;;5042522;28;20463;-54
2023/10/26 03:45:26;;;;;;;0.40;0.30;;;18.40;69.60;;;;;;5040050;28;20095;-54
2023/10/26 03:47:52;;;;;;;1.05;0.20;;;18.40;69.60;;;;;;5041940;28;20033;-58
2023/10/26 03:50:18;;;;;;;0.32;0.20;;;18.40;69.60;;;;;;5040566;28;20033;-58
2023/10/26 03:52:44;;;;;;;0.47;0.30;;;18.40;69.60;;;;;;5037725;28;20026;-56
2023/10/26 03:55:09;;;;;;;0.75;0.13;;;18.40;69.60;;;;;;5043298;28;20080;-54
2023/10/26 03:57:35;;;;;;;0.28;0.28;;;18.40;69.60;;;;;;5039557;28;20060;-55
2023/10/26 04:00:01;;;;;;;0.20;0.20;;;18.40;69.50;;;;;;5038152;28;20694;-52
2023/10/26 04:02:26;;;;;;;0.10;0.10;;;18.40;69.60;;;;;;5039520;28;20041;-54
2023/10/26 04:04:52;;;;;;;0.30;0.30;;;18.40;69.60;;;;;;5039761;28;20188;-55
2023/10/26 04:07:18;;;;;;;0.35;0.20;;;18.40;69.60;;;;;;5044749;28;20061;-54
2023/10/26 04:09:44;;;;;;;0.22;0.20;;;18.40;69.60;;;;;;5041032;28;20391;-53
2023/10/26 04:12:09;;;;;;;0.45;0.30;;;18.40;69.60;;;;;;5042068;28;20021;-55
2023/10/26 04:14:35;;;;;;;0.10;0.10;;;18.40;69.60;;;;;;5038160;28;20386;-54
2023/10/26 04:17:00;;;;;;;0.10;0.10;;;18.40;69.60;;;;;;5040468;28;20660;-54
2023/10/26 04:19:26;;;;;;;0.20;0.20;;;18.40;69.50;;;;;;5039646;28;20041;-55
2023/10/26 04:21:51;;;;;;;0.40;0.20;;;18.40;70.10;;;;;;5040017;28;20052;-56
2023/10/26 04:24:17;;;;;;;0.10;0.10;;;18.40;69.50;;;;;;5045744;28;20566;-54
2023/10/26 04:26:42;;;;;;;0.20;0.20;;;18.40;69.50;;;;;;5039617;28;20067;-55
2023/10/26 04:29:08;;;;;;;0.20;0.20;;;18.40;69.50;;;;;;5039387;28;20090;-57
2023/10/26 04:31:34;;;;;;;0.30;0.20;;;18.40;69.50;;;;;;5037627;28;20017;-57
2023/10/26 04:34:00;;;;;;;0.13;0.10;;;18.40;69.50;;;;;;5038972;28;20025;-57
2023/10/26 04:36:26;;;;;;;0.10;0.10;;;18.40;70.20;;;;;;5040762;28;20040;-58
2023/10/26 04:38:52;;;;;;;0.17;0.17;;;18.40;69.60;;;;;;5043151;28;20024;-54
2023/10/26 04:41:17;;;;;;;0.13;0.13;;;18.40;69.50;;;;;;5040517;28;20029;-54
2023/10/26 04:43:43;;;;;;;0.30;0.30;;;18.40;69.50;;;;;;5036930;28;20171;-56
2023/10/26 04:46:08;;;;;;;0.17;0.10;;;18.40;69.60;;;;;;5038283;28;20537;-53
2023/10/26 04:48:34;;;;;;;0.20;0.20;;;18.40;69.50;;;;;;5041309;28;20021;-56
2023/10/26 04:51:00;;;;;;;0.15;0.15;;;18.40;69.60;;;;;;5039509;28;20044;-57
2023/10/26 04:53:25;;;;;;;0.20;0.20;;;18.40;69.60;;;;;;5039920;28;20029;-56
2023/10/26 04:55:51;;;;;;;0.20;0.20;;;18.40;69.60;;;;;;5038982;28;20029;-56
2023/10/26 04:58:17;;;;;;;2.13;0.40;;;18.40;69.70;;;;;;5037181;28;20396;-55
2023/10/26 05:00:42;;;;;;;0.20;0.20;;;18.40;69.80;;;;;;5048285;22;20444;-54
2023/10/26 05:03:08;;;;;;;0.40;0.10;;;18.40;69.80;;;;;;5042359;28;20025;-55
2023/10/26 05:05:33;;;;;;;1.55;0.30;;;18.40;69.80;;;;;;5043543;28;20845;-53
2023/10/26 05:07:59;;;;;;;2.35;0.30;;;18.40;69.90;;;;;;5041464;28;20029;-55
2023/10/26 05:10:24;;;;;;;0.20;0.20;;;18.40;69.80;;;;;;5039336;28;20036;-56
2023/10/26 05:12:50;;;;;;;0.43;0.30;;;18.30;69.90;;;;;;5038353;28;20033;-54
2023/10/26 05:15:15;;;;;;;4.68;0.40;;;18.40;69.90;;;;;;5038578;28;20118;-52
2023/10/26 05:17:41;;;;;;;0.40;0.20;;;18.40;69.90;;;;;;5039278;28;20029;-55
2023/10/26 05:20:08;;;;;;;0.25;0.22;;;18.40;69.90;;;;;;5034348;28;20036;-54
2023/10/26 05:22:33;;;;;;;1.52;0.47;;;18.40;69.90;;;;;;5037782;28;22679;-55
2023/10/26 05:25:00;;;;;;;1.05;0.30;;;18.40;69.90;;;;;;5039481;28;20029;-53
2023/10/26 05:27:26;;;;;;;1.90;0.25;;;18.40;69.90;;;;;;5034374;28;20652;-56
2023/10/26 05:29:52;;;;;;;1.40;0.30;;;18.40;69.90;;;;;;5037319;28;20040;-58
2023/10/26 05:32:18;;;;;;;0.80;0.50;;;18.40;70.00;;;;;;5044085;28;20267;-55
2023/10/26 05:34:43;;;;;;;0.30;0.25;;;18.40;70.00;;;;;;5040809;28;20033;-55
2023/10/26 05:37:09;;;;;;;0.40;0.30;;;18.40;69.90;;;;;;5041822;28;20134;-57
2023/10/26 05:39:34;;;;;;;1.75;0.30;;;18.40;69.90;;;;;;5036757;28;20028;-57
2023/10/26 05:42:03;;;;;;;2.80;0.32;;;18.40;70.00;;;;;;5035419;28;20390;-56
2023/10/26 05:44:30;;;;;;;1.25;0.28;;;18.40;69.90;;;;;;5037431;28;20469;-54
2023/10/26 05:46:56;;;;;;;2.28;0.30;;;18.40;69.90;;;;;;5036407;28;20039;-56
2023/10/26 05:49:21;;;;;;;1.08;0.40;;;18.40;69.80;;;;;;5039404;28;20029;-53
2023/10/26 05:51:47;;;;;;;2.35;0.50;;;18.40;69.80;;;;;;5037450;28;20028;-54
2023/10/26 05:54:12;;;;;;;0.73;0.30;;;18.40;69.90;;;;;;5041923;28;20036;-55
2023/10/26 05:56:38;;;;;;;0.82;0.60;;;18.40;69.90;;;;;;5037171;28;20125;-56
2023/10/26 05:59:04;;;;;;;2.30;1.00;;;18.40;69.90;;;;;;5042758;28;20689;-54
2023/10/26 06:01:30;;;;;;;3.63;1.42;;;18.30;69.80;;;;;;5040283;28;20048;-56
2023/10/26 06:03:56;;;;;;;3.35;1.45;;;18.40;69.90;;;;;;5041687;28;20037;-56
2023/10/26 06:06:21;;;;;;;5.35;2.55;;;18.40;69.90;;;;;;5043027;28;20033;-56
2023/10/26 06:08:47;;;;;;;8.98;5.63;;;18.40;69.90;;;;;;5036590;28;20043;-56
2023/10/26 06:11:12;;;;;;;9.63;6.80;;;18.40;69.80;;;;;;5037460;28;20021;-55
2023/10/26 06:13:38;;;;;;;18.38;12.10;;;18.40;69.90;;;;;;5037845;28;20029;-54
2023/10/26 06:16:04;;;;;;;31.13;21.02;;;18.40;69.90;;;;;;5021315;28;20029;-56
2023/10/26 06:18:29;;;;;;;40.40;26.92;;;18.40;70.10;;;;;;5035049;28;20032;-55
2023/10/26 06:20:59;;;;;;;38.13;26.23;;;18.40;70.00;;;;;;5038542;28;20040;-56
2023/10/26 06:23:27;;;;;;;49.92;32.33;;;18.40;70.00;;;;;;5039294;28;20111;-55
2023/10/26 06:25:58;;;;;;;44.85;30.17;;;18.40;70.00;;;;;;5037664;28;20055;-55
2023/10/26 06:28:24;;;;;;;48.40;30.73;;;18.40;69.90;;;;;;5040358;28;20056;-56
2023/10/26 06:30:50;;;;;;;50.55;32.13;;;18.40;69.90;;;;;;5040386;28;20029;-56
2023/10/26 06:33:15;;;;;;;50.63;30.95;;;18.40;70.00;;;;;;5043414;28;20078;-56
2023/10/26 06:35:41;;;;;;;49.45;32.00;;;18.40;69.90;;;;;;5039502;28;20111;-56
2023/10/26 06:38:06;;;;;;;53.47;33.35;;;18.40;69.80;;;;;;5037315;28;20033;-56
2023/10/26 06:40:32;;;;;;;49.65;33.53;;;18.40;69.90;;;;;;5036407;28;20308;-55
2023/10/26 06:43:00;;;;;;;53.80;34.20;;;18.40;69.90;;;;;;5028437;28;20045;-55
2023/10/26 06:45:25;;;;;;;52.45;33.22;;;18.40;69.90;;;;;;5033835;28;20040;-54
2023/10/26 06:47:51;;;;;;;49.08;31.85;;;18.40;69.90;;;;;;5037485;28;20029;-56
2023/10/26 06:50:17;;;;;;;53.47;34.47;;;18.40;69.90;;;;;;5041591;28;20032;-56
2023/10/26 06:52:42;;;;;;;50.50;32.67;;;18.40;69.80;;;;;;5042175;28;20044;-56
2023/10/26 06:55:14;;;;;;;49.97;33.20;;;18.40;69.90;;;;;;5041190;28;20499;-55
2023/10/26 06:57:43;;;;;;;48.85;30.77;;;18.40;69.80;;;;;;5043176;28;20036;-57
2023/10/26 07:00:09;;;;;;;48.45;30.70;;;18.40;69.80;;;;;;5044485;28;20045;-55
2023/10/26 07:02:36;;;;;;;45.30;28.77;;;18.40;69.80;;;;;;5043481;28;20044;-54
2023/10/26 07:05:03;;;;;;;45.40;28.63;;;18.40;69.80;;;;;;5041813;28;20041;-55
2023/10/26 07:07:30;;;;;;;46.55;27.50;;;18.40;69.80;;;;;;5038852;28;20036;-55
2023/10/26 07:09:57;;;;;;;40.42;27.80;;;18.40;69.80;;;;;;5039797;28;20486;-56
2023/10/26 07:12:22;;;;;;;37.80;25.88;;;18.40;69.80;;;;;;5041108;28;20049;-55
2023/10/26 07:14:53;;;;;;;39.63;25.40;;;18.40;69.80;;;;;;5037213;28;20117;-57
2023/10/26 07:17:19;;;;;;;38.55;24.42;;;18.40;69.80;;;;;;5042026;28;20044;-57
2023/10/26 07:19:44;;;;;;;38.20;24.83;;;18.40;69.80;;;;;;5042378;28;20029;-56
2023/10/26 07:22:10;;;;;;;34.05;21.13;;;18.30;69.80;;;;;;5043473;28;20029;-54
2023/10/26 07:24:35;;;;;;;31.35;20.63;;;18.40;69.80;;;;;;5037454;28;20411;-56
2023/10/26 07:27:01;;;;;;;30.90;20.65;;;18.40;69.80;;;;;;5044230;28;20065;-55
2023/10/26 07:29:26;;;;;;;31.23;20.05;;;18.40;69.80;;;;;;5020022;28;20039;-56
2023/10/26 07:31:52;;;;;;;28.90;20.27;;;18.40;69.80;;;;;;5038980;28;20531;-54
2023/10/26 07:34:17;;;;;;;30.25;19.60;;;18.30;69.70;;;;;;5045632;28;20032;-55
2023/10/26 07:36:43;;;;;;;28.73;17.88;;;18.40;69.80;;;;;;5040722;28;20082;-54
2023/10/26 07:39:08;;;;;;;27.30;16.75;;;18.40;69.80;;;;;;5035030;28;20049;-55
2023/10/26 07:41:34;;;;;;;25.73;17.20;;;18.30;69.70;;;;;;5039748;28;20029;-55
2023/10/26 07:43:59;;;;;;;26.65;16.50;;;18.40;69.80;;;;;;5036881;28;20518;-55
2023/10/26 07:46:25;;;;;;;23.55;15.32;;;18.40;69.80;;;;;;5040175;28;20389;-54
2023/10/26 07:48:50;;;;;;;19.85;13.75;;;18.30;69.80;;;;;;5036582;28;20018;-54
2023/10/26 07:51:16;;;;;;;20.20;14.45;;;18.30;69.70;;;;;;5043408;28;20040;-56
2023/10/26 07:53:42;;;;;;;20.17;13.68;;;18.40;69.80;;;;;;5040753;28;20021;-55
2023/10/26 07:56:07;;;;;;;21.80;13.60;;;18.40;69.80;;;;;;5038363;28;20104;-57
2023/10/26 07:58:33;;;;;;;20.25;13.15;;;18.30;69.70;;;;;;5041768;28;20164;-55
2023/10/26 08:00:59;;;;;;;18.40;12.38;;;18.40;69.80;;;;;;5043209;28;20078;-56
2023/10/26 08:03:25;;;;;;;19.02;12.35;;;18.30;69.70;;;;;;5038250;28;20033;-56
2023/10/26 08:06:02;;;;;;;16.13;11.48;;;18.30;69.70;;;;;;5039482;28;20025;-57
2023/10/26 08:08:29;;;;;;;17.98;12.18;;;18.30;69.70;;;;;;5036481;28;20037;-57
2023/10/26 08:10:56;;;;;;;17.02;11.10;;;18.40;69.80;;;;;;5039067;28;20179;-56
2023/10/26 08:13:22;;;;;;;15.02;10.25;;;18.30;69.70;;;;;;5040781;28;20541;-56
2023/10/26 08:15:48;;;;;;;15.60;10.18;;;18.30;69.70;;;;;;5039739;28;20040;-54
2023/10/26 08:18:13;;;;;;;15.10;9.43;;;18.30;69.70;;;;;;5042973;28;20243;-55
2023/10/26 08:20:39;;;;;;;14.98;9.73;;;18.30;69.70;;;;;;5041105;28;20040;-56
2023/10/26 08:23:05;;;;;;;13.25;9.45;;;18.30;69.70;;;;;;5038741;28;20215;-54
2023/10/26 08:25:35;;;;;;;13.15;8.95;;;18.40;69.80;;;;;;5042824;28;20237;-54
2023/10/26 08:28:01;;;;;;;12.18;7.65;;;18.30;69.80;;;;;;5042772;28;20037;-57
2023/10/26 08:30:27;;;;;;;12.38;7.68;;;18.30;69.80;;;;;;5040994;28;20075;-54
2023/10/26 08:32:54;;;;;;;12.25;8.60;;;18.30;69.70;;;;;;5036735;28;20717;-54
2023/10/26 08:35:20;;;;;;;11.35;6.97;;;18.30;69.80;;;;;;5041005;28;20037;-56
2023/10/26 08:37:45;;;;;;;11.75;7.20;;;18.30;69.80;;;;;;5037433;28;20044;-58
2023/10/26 08:40:12;;;;;;;10.57;7.55;;;18.30;69.80;;;;;;5038310;28;20052;-55
2023/10/26 08:42:43;;;;;;;9.70;6.30;;;18.30;69.80;;;;;;5038000;28;20575;-55
2023/10/26 08:45:16;;;;;;;11.02;6.13;;;18.40;69.80;;;;;;5040644;28;20445;-55
2023/10/26 08:47:43;;;;;;;9.25;5.82;;;18.40;69.80;;;;;;5038410;28;20478;-58
2023/10/26 08:50:12;;;;;;;9.98;5.95;;;18.30;69.70;;;;;;5040019;28;20170;-56
2023/10/26 08:52:37;;;;;;;7.15;4.68;;;18.40;69.80;;;;;;5036665;28;20029;-56
2023/10/26 08:55:03;;;;;;;7.53;4.30;;;18.40;69.80;;;;;;5040151;28;20545;-56
2023/10/26 08:57:30;;;;;;;8.25;4.78;;;18.40;69.70;;;;;;5039596;28;20060;-57
2023/10/26 08:59:55;;;;;;;7.05;4.70;;;18.40;69.70;;;;;;5038774;28;20108;-55
2023/10/26 09:02:21;;;;;;;6.22;4.38;;;18.40;69.70;;;;;;5040753;28;20612;-56
2023/10/26 09:05:03;;;;;;;6.07;4.10;;;18.40;69.60;;;;;;5038566;28;20045;-57
2023/10/26 09:07:28;;;;;;;6.50;4.05;;;18.40;69.60;;;;;;5035583;28;20521;-56
2023/10/26 09:09:54;;;;;;;5.57;4.00;;;18.40;69.60;;;;;;5037087;28;20116;-55
2023/10/26 09:12:19;;;;;;;3.75;2.60;;;18.40;69.50;;;;;;5039126;28;20056;-56
2023/10/26 09:15:03;;;;;;;4.05;2.78;;;18.40;69.50;;;;;;5039940;28;20410;-56
2023/10/26 09:17:30;;;;;;;5.43;2.80;;;18.40;69.50;;;;;;5037952;28;20044;-56
2023/10/26 09:19:57;;;;;;;3.70;2.63;;;18.40;69.50;;;;;;5038519;28;20083;-56
2023/10/26 09:22:36;;;;;;;4.80;2.92;;;18.40;69.50;;;;;;5020032;28;20422;-56
2023/10/26 09:25:10;;;;;;;4.43;2.65;;;18.40;69.50;;;;;;5038817;28;20037;-58
2023/10/26 09:27:36;;;;;;;3.90;2.38;;;18.40;69.50;;;;;;5045421;28;20086;-57
2023/10/26 09:30:03;;;;;;;3.75;2.55;;;18.40;69.50;;;;;;5036849;28;20227;-56
2023/10/26 09:32:35;;;;;;;3.83;2.40;;;18.40;69.50;;;;;;5035633;28;20059;-56
2023/10/26 09:35:03;;;;;;;2.88;2.15;;;18.40;69.50;;;;;;5033790;28;20520;-56
2023/10/26 09:37:29;;;;;;;4.50;2.92;;;18.40;69.50;;;;;;5034753;28;20067;-57
2023/10/26 09:39:56;;;;;;;4.00;2.30;;;18.40;69.50;;;;;;5032829;28;20086;-56
2023/10/26 09:42:23;;;;;;;3.03;2.45;;;18.40;69.50;;;;;;5036249;28;20029;-56
2023/10/26 09:44:50;;;;;;;3.50;2.40;;;18.30;69.40;;;;;;5036593;28;20494;-57
2023/10/26 09:47:17;;;;;;;3.35;2.17;;;18.40;69.50;;;;;;5039096;28;20041;-54
2023/10/26 09:49:42;;;;;;;4.75;1.90;;;18.30;69.40;;;;;;5038898;28;20056;-57
2023/10/26 09:52:08;;;;;;;3.25;1.95;;;18.30;69.40;;;;;;5020977;28;20033;-57
2023/10/26 09:54:36;;;;;;;2.47;2.00;;;18.30;69.40;;;;;;5045345;28;20029;-54
2023/10/26 09:57:23;;;;;;;2.22;1.80;;;18.40;69.40;;;;;;5041614;28;20112;-55
2023/10/26 09:59:56;;;;;;;2.65;1.88;;;18.40;69.50;;;;;;5025408;28;20037;-56
2023/10/26 10:02:21;;;;;;;4.22;1.70;;;18.40;69.40;;;;;;5034937;28;20402;-58
2023/10/26 10:04:50;;;;;;;2.95;1.25;;;18.40;69.40;;;;;;5038203;28;20033;-56
2023/10/26 10:07:17;;;;;;;4.07;1.60;;;18.40;69.40;;;;;;5034039;28;20342;-64
2023/10/26 10:10:04;;;;;;;2.85;1.63;;;18.40;69.40;;;;;;5033698;28;20079;-54
2023/10/26 10:12:30;;;;;;;1.95;1.50;;;18.40;69.40;;;;;;5039913;28;20055;-57
2023/10/26 10:15:03;;;;;;;1.98;1.50;;;18.40;69.40;;;;;;5038918;28;20037;-56
2023/10/26 10:17:44;;;;;;;2.05;1.30;;;18.40;69.40;;;;;;5037120;28;20529;-56
2023/10/26 10:20:18;;;;;;;2.05;1.23;;;18.30;69.30;;;;;;5039449;28;20246;-54
2023/10/26 10:22:44;;;;;;;2.95;1.50;;;18.40;69.40;;;;;;5037935;28;20035;-54
2023/10/26 10:25:10;;;;;;;1.45;1.05;;;18.40;69.40;;;;;;5040072;28;20486;-56
2023/10/26 10:27:36;;;;;;;2.55;1.23;;;18.40;69.40;;;;;;5045408;28;20041;-56
2023/10/26 10:30:10;;;;;;;1.58;1.15;;;18.40;69.40;;;;;;5037049;28;20044;-56
2023/10/26 10:32:44;;;;;;;1.80;1.35;;;18.40;69.40;;;;;;5041205;28;20127;-57
2023/10/26 10:35:36;;;;;;;2.10;1.20;;;18.40;69.40;;;;;;5041030;28;20029;-55
2023/10/26 10:38:11;;;;;;;1.15;0.90;;;18.40;69.30;;;;;;5035383;28;20047;-55
2023/10/26 10:40:38;;;;;;;1.08;0.80;;;18.30;69.20;;;;;;5042909;28;20041;-56
2023/10/26 10:43:04;;;;;;;1.35;1.00;;;18.40;69.30;;;;;;5025799;28;20029;-56
2023/10/26 10:45:29;;;;;;;1.85;1.05;;;18.40;69.30;;;;;;5045098;28;20036;-57
2023/10/26 10:47:55;;;;;;;1.13;0.88;;;18.30;69.30;;;;;;5044380;28;20025;-56
2023/10/26 10:50:25;;;;;;;1.08;0.95;;;18.30;69.30;;;;;;5041487;28;20101;-56
2023/10/26 10:52:55;;;;;;;0.80;0.63;;;18.30;69.20;;;;;;5044163;28;20393;-57
2023/10/26 10:55:27;;;;;;;1.73;1.10;;;18.30;69.30;;;;;;5026557;28;20541;-56
2023/10/26 10:57:56;;;;;;;0.90;0.70;;;18.30;69.30;;;;;;5039213;28;20395;-57
2023/10/26 11:00:24;;;;;;;1.00;0.90;;;18.30;69.20;;;;;;5039589;28;20454;-57
2023/10/26 11:02:52;;;;;;;2.03;0.90;;;18.30;69.20;;;;;;5038782;28;20037;-57
2023/10/26 11:05:18;;;;;;;1.42;0.63;;;18.30;69.30;;;;;;5034597;28;20554;-55
2023/10/26 11:07:43;;;;;;;0.98;0.60;;;18.30;69.20;;;;;;5035495;28;20115;-54
2023/10/26 11:10:09;;;;;;;0.73;0.50;;;18.30;69.20;;;;;;5040614;28;20166;-56
2023/10/26 11:12:35;;;;;;;1.70;0.68;;;18.30;69.20;;;;;;5041056;28;20033;-55
2023/10/26 11:15:01;;;;;;;1.17;0.80;;;18.30;69.30;;;;;;5042298;28;20071;-57
2023/10/26 11:17:29;;;;;;;3.17;0.90;;;18.30;69.20;;;;;;5042425;28;20064;-54
2023/10/26 11:19:55;;;;;;;0.82;0.65;;;18.40;69.20;;;;;;5041955;28;20033;-55
2023/10/26 11:22:22;;;;;;;0.57;0.57;;;18.40;69.20;;;;;;5042179;28;20061;-56
2023/10/26 11:24:48;;;;;;;0.90;0.70;;;18.30;69.20;;;;;;5044830;28;20119;-56
2023/10/26 11:27:17;;;;;;;1.00;0.65;;;18.40;69.20;;;;;;5040237;28;20038;-55
2023/10/26 11:29:58;;;;;;;1.23;0.60;;;18.30;69.20;;;;;;5038921;28;20066;-56
2023/10/26 11:32:24;;;;;;;0.93;0.82;;;18.30;69.20;;;;;;5042257;28;20120;-55
2023/10/26 11:35:06;;;;;;;0.77;0.60;;;18.30;69.20;;;;;;5017601;28;20111;-54
2023/10/26 11:37:39;;;;;;;1.25;1.00;;;18.40;69.20;;;;;;5038437;28;20055;-54
2023/10/26 11:40:06;;;;;;;1.55;0.68;;;18.30;69.10;;;;;;5040067;28;20029;-55
2023/10/26 11:42:47;;;;;;;0.77;0.60;;;18.30;69.20;;;;;;5042344;28;20108;-54
2023/10/26 11:45:15;;;;;;;0.77;0.50;;;18.40;69.20;;;;;;5028673;28;20470;-54
2023/10/26 11:47:47;;;;;;;0.80;0.52;;;18.30;69.20;;;;;;5039846;28;20029;-56
2023/10/26 11:50:26;;;;;;;0.60;0.40;;;18.30;69.20;;;;;;5042347;28;20021;-56
2023/10/26 11:52:54;;;;;;;1.58;0.55;;;18.30;69.10;;;;;;5044525;28;20021;-56
2023/10/26 11:55:21;;;;;;;0.50;0.43;;;18.30;69.10;;;;;;5040549;28;20082;-54
2023/10/26 11:57:47;;;;;;;0.50;0.45;;;18.30;69.20;;;;;;5039060;28;20116;-57
2023/10/26 12:00:14;;;;;;;0.95;0.85;;;18.30;69.20;;;;;;5045069;28;20112;-57
2023/10/26 12:02:40;;;;;;;1.77;0.50;;;18.40;69.20;;;;;;5040704;28;20159;-55
2023/10/26 12:05:07;;;;;;;0.93;0.80;;;18.30;69.20;;;;;;5038132;28;20056;-57
2023/10/26 12:07:34;;;;;;;0.52;0.50;;;18.30;69.10;;;;;;5039440;28;20044;-58
2023/10/26 12:10:03;;;;;;;0.60;0.60;;;18.30;69.10;;;;;;5022181;28;20505;-56
2023/10/26 12:12:29;;;;;;;0.50;0.50;;;18.30;69.20;;;;;;5043035;28;20405;-56
2023/10/26 12:14:55;;;;;;;0.75;0.50;;;18.30;69.20;;;;;;5040894;28;20033;-55
2023/10/26 12:17:20;;;;;;;1.20;0.43;;;18.30;69.10;;;;;;5042957;28;20029;-55
2023/10/26 12:19:46;;;;;;;0.52;0.47;;;18.40;69.20;;;;;;5040610;28;20548;-57
2023/10/26 12:22:11;;;;;;;0.80;0.57;;;18.30;69.10;;;;;;5039576;28;21125;-54
2023/10/26 12:24:37;;;;;;;0.70;0.40;;;18.30;69.20;;;;;;5043205;28;20774;-54
2023/10/26 12:27:03;;;;;;;0.73;0.50;;;18.30;69.20;;;;;;5023303;28;20064;-57
2023/10/26 12:29:29;;;;;;;0.73;0.60;;;18.30;69.20;;;;;;5043404;28;20041;-54
2023/10/26 12:31:54;;;;;;;0.60;0.40;;;18.30;69.20;;;;;;5039015;28;20032;-53
2023/10/26 12:34:20;;;;;;;0.77;0.63;;;18.30;69.20;;;;;;5039862;28;20490;-54
2023/10/26 12:36:46;;;;;;;0.65;0.50;;;18.30;69.20;;;;;;5041490;28;20029;-53
2023/10/26 12:39:12;;;;;;;0.80;0.57;;;18.30;69.20;;;;;;5035243;28;20630;-56
2023/10/26 12:41:37;;;;;;;0.40;0.40;;;18.30;69.20;;;;;;5033693;28;20567;-55